Mild Tempo — VROE5 — position and weather

sailwx.info

Track history (hours):
 
Tides and Currents Weather Stations Pressure Air Temp Water Temp Dewpoint Dewpoint Depression Visibility Wind Speed Wind Dir Waves Ship Positions

Mild Tempo

Last reported at 2018-Apr-15 05:47 UTC. Time now 2018-Apr-21 19:01 UTC.
Position N 31°13' E 121°30'.

Length 148 m; draft 7.2 m.

Type: Ship (hazmat cat D). MMSI: 477006600.

Date/timePositionNaut miles runAvg speedWind from/ knotsBaromVisibWave heightAir tempDewpointWater temp
2018-Apr-15 05:47N 31°13' E 121°30'9 4.5
2018-Apr-15 03:45N 31°23' E 121°30'10 0.7
2018-Apr-14 13:42N 31°20' E 121°40'0 0.0
2018-Apr-14 13:21N 31°20' E 121°40'8 2.0
2018-Apr-14 09:27N 31°17' E 121°49'510.7
2018-Apr-14 09:01N 31°16' E 121°54'712.3
2018-Apr-14 08:27N 31°15' E 122°02'4 9.5
2018-Apr-14 08:00N 31°13' E 122°07'4 6.1
2018-Apr-14 07:18N 31°11' E 122°11'410.1
2018-Apr-14 06:56N 31°08' E 122°15'511.8
2018-Apr-14 06:30N 31°06' E 122°20'17 0.5
2018-Apr-12 22:18N 31°04' E 122°40'1317.9
2018-Apr-12 21:33N 31°06' E 122°55'1 9.0
2018-Apr-12 21:29N 31°06' E 122°56'714.6
2018-Apr-12 21:01N 31°05' E 123°04'5 9.3
2018-Apr-12 20:30N 31°05' E 123°10'4949.6
2018-Apr-12 19:31N 31°03' E 124°07'0 6.4
2018-Apr-12 19:30N 31°03' E 124°07'9 2.7
2018-Apr-12 16:14N 31°03' E 124°17'3514.3
2018-Apr-12 13:45N 31°04' E 124°59'62014.9
2018-Apr-10 20:03N 34°02' E 136°43'117.1
2018-Apr-10 20:00N 34°02' E 136°43'3517.1
2018-Apr-10 17:56N 34°25' E 137°16'2317.2
2018-Apr-10 16:36N 34°28' E 137°44'218.1
2018-Apr-10 16:30N 34°28' E 137°46'917.5
2018-Apr-10 16:00N 34°28' E 137°56'917.4
2018-Apr-10 15:29N 34°28' E 138°07'817.2
2018-Apr-10 15:00N 34°28' E 138°17'917.3
2018-Apr-10 14:30N 34°29' E 138°28'816.3
2018-Apr-10 14:00N 34°29' E 138°38'816.5
2018-Apr-10 13:30N 34°29' E 138°48'815.8
2018-Apr-10 13:00N 34°30' E 138°57'916.6
2018-Apr-10 12:29N 34°37' E 139°04'917.3
2018-Apr-10 11:58N 34°45' E 139°09'817.2
2018-Apr-10 11:30N 34°50' E 139°16'815.7
2018-Apr-10 11:00N 34°55' E 139°24'815.7
2018-Apr-10 10:30N 34°59' E 139°32'917.4
2018-Apr-10 10:00N 35°04' E 139°40'815.9
2018-Apr-10 09:30N 35°11' E 139°46'612.8
2018-Apr-10 09:00N 35°17' E 139°44'612.9
2018-Apr-10 08:30N 35°24' E 139°42'3 6.8
2018-Apr-10 08:00N 35°27' E 139°41'0 0.6
2018-Apr-10 07:28N 35°26' E 139°41'0 0.0
2018-Apr-10 06:58N 35°26' E 139°41'0 0.0
2018-Apr-10 06:28N 35°26' E 139°41'0 0.0
2018-Apr-10 05:58N 35°26' E 139°41'0 0.0
2018-Apr-10 05:28N 35°26' E 139°41'0 0.0
2018-Apr-10 04:58N 35°26' E 139°41'0 0.0
2018-Apr-10 04:28N 35°26' E 139°41'0 0.3
2018-Apr-10 04:00N 35°27' E 139°41'2 4.3
2018-Apr-10 03:30N 35°26' E 139°43'4 7.6
2018-Apr-10 03:00N 35°27' E 139°48'510.9
2018-Apr-10 02:30N 35°32' E 139°51'4 7.5
2018-Apr-10 02:00N 35°35' E 139°48'0 0.2
2018-Apr-10 01:22N 35°35' E 139°48'0 0.1
2018-Apr-10 00:58N 35°35' E 139°48'0 0.0
2018-Apr-10 00:28N 35°35' E 139°48'0 0.0
2018-Apr-09 23:58N 35°35' E 139°48'0 0.0
2018-Apr-09 23:28N 35°35' E 139°48'0 0.0
2018-Apr-09 22:58N 35°35' E 139°48'0 0.0
2018-Apr-09 22:22N 35°35' E 139°48'0 0.0
2018-Apr-09 21:58N 35°35' E 139°48'0 0.0
2018-Apr-09 21:25N 35°35' E 139°48'0 0.0
2018-Apr-09 20:58N 35°35' E 139°48'0 0.0
2018-Apr-09 20:28N 35°35' E 139°48'0 0.0
2018-Apr-09 19:55N 35°35' E 139°48'0 0.0
2018-Apr-09 19:28N 35°35' E 139°48'0 0.0
2018-Apr-09 18:58N 35°35' E 139°48'0 0.0
2018-Apr-09 18:25N 35°35' E 139°48'0 0.0
2018-Apr-09 17:58N 35°35' E 139°48'0 0.0
2018-Apr-09 17:28N 35°35' E 139°48'0 0.0
2018-Apr-09 16:58N 35°35' E 139°48'0 0.0
2018-Apr-09 16:28N 35°35' E 139°48'0 0.0
2018-Apr-09 15:58N 35°35' E 139°48'0 0.0
2018-Apr-09 15:22N 35°35' E 139°48'0 0.0
2018-Apr-09 14:58N 35°35' E 139°48'0 0.0
2018-Apr-09 14:25N 35°35' E 139°48'0 0.0
2018-Apr-09 13:58N 35°35' E 139°48'0 0.0
2018-Apr-09 13:28N 35°35' E 139°48'0 0.0
2018-Apr-09 12:58N 35°35' E 139°48'0 0.0
2018-Apr-09 12:28N 35°35' E 139°48'0 0.0
2018-Apr-09 11:58N 35°35' E 139°48'0 0.0
2018-Apr-09 11:30N 35°35' E 139°48'0 0.6
2018-Apr-09 11:00N 35°35' E 139°48'2 4.5
2018-Apr-09 10:30N 35°34' E 139°50'4 9.1
2018-Apr-09 10:00N 35°29' E 139°52'611.0
2018-Apr-09 09:30N 35°25' E 139°48'612.7
2018-Apr-09 09:00N 35°19' E 139°44'611.7
2018-Apr-09 08:30N 35°14' E 139°47'713.0
2018-Apr-09 08:00N 35°08' E 139°45'713.4
2018-Apr-09 07:30N 35°02' E 139°41'714.9
2018-Apr-09 07:01N 34°58' E 139°34'816.2
2018-Apr-09 06:30N 34°53' E 139°26'1116.5
2018-Apr-09 05:51N 34°46' E 139°16'816.9
2018-Apr-09 05:24N 34°40' E 139°10'816.4
2018-Apr-09 04:54N 34°34' E 139°03'615.4
2018-Apr-09 04:31N 34°30' E 138°57'915.4
2018-Apr-09 03:57N 34°29' E 138°47'915.5
2018-Apr-09 03:24N 34°28' E 138°37'815.1
2018-Apr-09 02:54N 34°27' E 138°28'715.2
2018-Apr-09 02:28N 34°26' E 138°20'1015.3
2018-Apr-09 01:47N 34°25' E 138°07'716.2
2018-Apr-09 01:21N 34°25' E 137°59'616.4
2018-Apr-09 01:00N 34°24' E 137°52'2716.4
2018-Apr-08 23:21N 34°22' E 137°19'3317.2
2018-Apr-08 21:26N 34°02' E 136°48'8414.1
2018-Apr-08 15:28N 33°42' E 135°09'817.4
2018-Apr-08 15:00N 33°48' E 135°03'816.4
2018-Apr-08 14:30N 33°56' E 134°59'816.8
2018-Apr-08 14:00N 34°05' E 134°58'917.7
2018-Apr-08 13:30N 34°13' E 134°58'917.4
2018-Apr-08 13:00N 34°22' E 135°00'917.3
2018-Apr-08 12:30N 34°30' E 135°03'714.7
2018-Apr-08 12:01N 34°37' E 135°00'918.9
2018-Apr-08 11:30N 34°33' E 134°50'918.2
2018-Apr-08 11:00N 34°30' E 134°40'918.3
2018-Apr-08 10:30N 34°26' E 134°29'918.2
2018-Apr-08 10:00N 34°23' E 134°19'917.7
2018-Apr-08 09:30N 34°26' E 134°08'7315.0
2018-Apr-08 04:37N 34°00' E 132°45'217.3
2018-Apr-08 04:31N 33°59' E 132°44'1317.1
2018-Apr-08 03:44N 33°50' E 132°32'1316.9
2018-Apr-08 02:59N 33°44' E 132°19'1216.5
2018-Apr-08 02:15N 33°42' E 132°05'517.0
2018-Apr-08 01:58N 33°43' E 131°59'816.6
2018-Apr-08 01:30N 33°44' E 131°50'816.7
2018-Apr-08 01:00N 33°46' E 131°40'816.7
2018-Apr-08 00:30N 33°48' E 131°30'816.8
2018-Apr-08 00:00N 33°50' E 131°20'817.0
2018-Apr-07 23:31N 33°52' E 131°10'816.7
2018-Apr-07 23:00N 33°57' E 131°03'612.2
2018-Apr-07 22:30N 33°55' E 130°56'612.7
2018-Apr-07 22:00N 33°60' E 130°51'816.5
2018-Apr-07 21:30N 34°02' E 130°41'918.4
2018-Apr-07 21:00N 33°59' E 130°31'918.5
2018-Apr-07 20:31N 33°55' E 130°21'918.4
2018-Apr-07 20:00N 33°51' E 130°11'918.4
2018-Apr-07 19:31N 33°46' E 130°02'1018.1
2018-Apr-07 18:58N 33°40' E 129°52'  
Track history (hours):
 
Tides and Currents Weather Stations Pressure Air Temp Water Temp Dewpoint Dewpoint Depression Visibility Wind Speed Wind Dir Waves Ship Positions

Mild Tempo

Last reported at 2018-Apr-15 05:47 UTC. Time now 2018-Apr-21 19:01 UTC.
Position N 31°13' E 121°30'.

Length 148 m; draft 7.2 m.

Type: Ship (hazmat cat D). MMSI: 477006600.

Date/timePositionNaut miles runAvg speedWind from/ knotsBaromVisibWave heightAir tempDewpointWater temp
2018-Apr-15 05:47N 31°13' E 121°30'9 4.5
2018-Apr-15 03:45N 31°23' E 121°30'10 0.7
2018-Apr-14 13:42N 31°20' E 121°40'0 0.0
2018-Apr-14 13:21N 31°20' E 121°40'8 2.0
2018-Apr-14 09:27N 31°17' E 121°49'510.7
2018-Apr-14 09:01N 31°16' E 121°54'712.3
2018-Apr-14 08:27N 31°15' E 122°02'4 9.5
2018-Apr-14 08:00N 31°13' E 122°07'4 6.1
2018-Apr-14 07:18N 31°11' E 122°11'410.1
2018-Apr-14 06:56N 31°08' E 122°15'511.8
2018-Apr-14 06:30N 31°06' E 122°20'17 0.5
2018-Apr-12 22:18N 31°04' E 122°40'1317.9
2018-Apr-12 21:33N 31°06' E 122°55'1 9.0
2018-Apr-12 21:29N 31°06' E 122°56'714.6
2018-Apr-12 21:01N 31°05' E 123°04'5 9.3
2018-Apr-12 20:30N 31°05' E 123°10'4949.6
2018-Apr-12 19:31N 31°03' E 124°07'0 6.4
2018-Apr-12 19:30N 31°03' E 124°07'9 2.7
2018-Apr-12 16:14N 31°03' E 124°17'3514.3
2018-Apr-12 13:45N 31°04' E 124°59'62014.9
2018-Apr-10 20:03N 34°02' E 136°43'117.1
2018-Apr-10 20:00N 34°02' E 136°43'3517.1
2018-Apr-10 17:56N 34°25' E 137°16'2317.2
2018-Apr-10 16:36N 34°28' E 137°44'218.1
2018-Apr-10 16:30N 34°28' E 137°46'917.5
2018-Apr-10 16:00N 34°28' E 137°56'917.4
2018-Apr-10 15:29N 34°28' E 138°07'817.2
2018-Apr-10 15:00N 34°28' E 138°17'917.3
2018-Apr-10 14:30N 34°29' E 138°28'816.3
2018-Apr-10 14:00N 34°29' E 138°38'816.5
2018-Apr-10 13:30N 34°29' E 138°48'815.8
2018-Apr-10 13:00N 34°30' E 138°57'916.6
2018-Apr-10 12:29N 34°37' E 139°04'917.3
2018-Apr-10 11:58N 34°45' E 139°09'817.2
2018-Apr-10 11:30N 34°50' E 139°16'815.7
2018-Apr-10 11:00N 34°55' E 139°24'815.7
2018-Apr-10 10:30N 34°59' E 139°32'917.4
2018-Apr-10 10:00N 35°04' E 139°40'815.9
2018-Apr-10 09:30N 35°11' E 139°46'612.8
2018-Apr-10 09:00N 35°17' E 139°44'612.9
2018-Apr-10 08:30N 35°24' E 139°42'3 6.8
2018-Apr-10 08:00N 35°27' E 139°41'0 0.6
2018-Apr-10 07:28N 35°26' E 139°41'0 0.0
2018-Apr-10 06:58N 35°26' E 139°41'0 0.0
2018-Apr-10 06:28N 35°26' E 139°41'0 0.0
2018-Apr-10 05:58N 35°26' E 139°41'0 0.0
2018-Apr-10 05:28N 35°26' E 139°41'0 0.0
2018-Apr-10 04:58N 35°26' E 139°41'0 0.0
2018-Apr-10 04:28N 35°26' E 139°41'0 0.3
2018-Apr-10 04:00N 35°27' E 139°41'2 4.3
2018-Apr-10 03:30N 35°26' E 139°43'4 7.6
2018-Apr-10 03:00N 35°27' E 139°48'510.9
2018-Apr-10 02:30N 35°32' E 139°51'4 7.5
2018-Apr-10 02:00N 35°35' E 139°48'0 0.2
2018-Apr-10 01:22N 35°35' E 139°48'0 0.1
2018-Apr-10 00:58N 35°35' E 139°48'0 0.0
2018-Apr-10 00:28N 35°35' E 139°48'0 0.0
2018-Apr-09 23:58N 35°35' E 139°48'0 0.0
2018-Apr-09 23:28N 35°35' E 139°48'0 0.0
2018-Apr-09 22:58N 35°35' E 139°48'0 0.0
2018-Apr-09 22:22N 35°35' E 139°48'0 0.0
2018-Apr-09 21:58N 35°35' E 139°48'0 0.0
2018-Apr-09 21:25N 35°35' E 139°48'0 0.0
2018-Apr-09 20:58N 35°35' E 139°48'0 0.0
2018-Apr-09 20:28N 35°35' E 139°48'0 0.0
2018-Apr-09 19:55N 35°35' E 139°48'0 0.0
2018-Apr-09 19:28N 35°35' E 139°48'0 0.0
2018-Apr-09 18:58N 35°35' E 139°48'0 0.0
2018-Apr-09 18:25N 35°35' E 139°48'0 0.0
2018-Apr-09 17:58N 35°35' E 139°48'0 0.0
2018-Apr-09 17:28N 35°35' E 139°48'0 0.0
2018-Apr-09 16:58N 35°35' E 139°48'0 0.0
2018-Apr-09 16:28N 35°35' E 139°48'0 0.0
2018-Apr-09 15:58N 35°35' E 139°48'0 0.0
2018-Apr-09 15:22N 35°35' E 139°48'0 0.0
2018-Apr-09 14:58N 35°35' E 139°48'0 0.0
2018-Apr-09 14:25N 35°35' E 139°48'0 0.0
2018-Apr-09 13:58N 35°35' E 139°48'0 0.0
2018-Apr-09 13:28N 35°35' E 139°48'0 0.0
2018-Apr-09 12:58N 35°35' E 139°48'0 0.0
2018-Apr-09 12:28N 35°35' E 139°48'0 0.0
2018-Apr-09 11:58N 35°35' E 139°48'0 0.0
2018-Apr-09 11:30N 35°35' E 139°48'0 0.6
2018-Apr-09 11:00N 35°35' E 139°48'2 4.5
2018-Apr-09 10:30N 35°34' E 139°50'4 9.1
2018-Apr-09 10:00N 35°29' E 139°52'611.0
2018-Apr-09 09:30N 35°25' E 139°48'612.7
2018-Apr-09 09:00N 35°19' E 139°44'611.7
2018-Apr-09 08:30N 35°14' E 139°47'713.0
2018-Apr-09 08:00N 35°08' E 139°45'713.4
2018-Apr-09 07:30N 35°02' E 139°41'714.9
2018-Apr-09 07:01N 34°58' E 139°34'816.2
2018-Apr-09 06:30N 34°53' E 139°26'1116.5
2018-Apr-09 05:51N 34°46' E 139°16'816.9
2018-Apr-09 05:24N 34°40' E 139°10'816.4
2018-Apr-09 04:54N 34°34' E 139°03'615.4
2018-Apr-09 04:31N 34°30' E 138°57'915.4
2018-Apr-09 03:57N 34°29' E 138°47'915.5
2018-Apr-09 03:24N 34°28' E 138°37'815.1
2018-Apr-09 02:54N 34°27' E 138°28'715.2
2018-Apr-09 02:28N 34°26' E 138°20'1015.3
2018-Apr-09 01:47N 34°25' E 138°07'716.2
2018-Apr-09 01:21N 34°25' E 137°59'616.4
2018-Apr-09 01:00N 34°24' E 137°52'2716.4
2018-Apr-08 23:21N 34°22' E 137°19'3317.2
2018-Apr-08 21:26N 34°02' E 136°48'8414.1
2018-Apr-08 15:28N 33°42' E 135°09'817.4
2018-Apr-08 15:00N 33°48' E 135°03'816.4
2018-Apr-08 14:30N 33°56' E 134°59'816.8
2018-Apr-08 14:00N 34°05' E 134°58'917.7
2018-Apr-08 13:30N 34°13' E 134°58'917.4
2018-Apr-08 13:00N 34°22' E 135°00'917.3
2018-Apr-08 12:30N 34°30' E 135°03'714.7
2018-Apr-08 12:01N 34°37' E 135°00'918.9
2018-Apr-08 11:30N 34°33' E 134°50'918.2
2018-Apr-08 11:00N 34°30' E 134°40'918.3
2018-Apr-08 10:30N 34°26' E 134°29'918.2
2018-Apr-08 10:00N 34°23' E 134°19'917.7
2018-Apr-08 09:30N 34°26' E 134°08'7315.0
2018-Apr-08 04:37N 34°00' E 132°45'217.3
2018-Apr-08 04:31N 33°59' E 132°44'1317.1
2018-Apr-08 03:44N 33°50' E 132°32'1316.9
2018-Apr-08 02:59N 33°44' E 132°19'1216.5
2018-Apr-08 02:15N 33°42' E 132°05'517.0
2018-Apr-08 01:58N 33°43' E 131°59'816.6
2018-Apr-08 01:30N 33°44' E 131°50'816.7
2018-Apr-08 01:00N 33°46' E 131°40'816.7
2018-Apr-08 00:30N 33°48' E 131°30'816.8
2018-Apr-08 00:00N 33°50' E 131°20'817.0
2018-Apr-07 23:31N 33°52' E 131°10'816.7
2018-Apr-07 23:00N 33°57' E 131°03'612.2
2018-Apr-07 22:30N 33°55' E 130°56'612.7
2018-Apr-07 22:00N 33°60' E 130°51'816.5
2018-Apr-07 21:30N 34°02' E 130°41'918.4
2018-Apr-07 21:00N 33°59' E 130°31'918.5
2018-Apr-07 20:31N 33°55' E 130°21'918.4
2018-Apr-07 20:00N 33°51' E 130°11'918.4
2018-Apr-07 19:31N 33°46' E 130°02'1018.1
2018-Apr-07 18:58N 33°40' E 129°52'  

Dump ship's entire track history